Terminal Aerodrome Forecast
Issued by NWS St Louis, MO

Home | Current Version | Previous Version | Text Only | Print | Product List | Glossary On
Versions: 1 2 3 4 5 6 7 8 9 10 11 12 13 14 15 16 17 18 19 20 21 22 23 24 25 26 27 28
644
FTUS43 KLSX 041725
TAFSTL
TAF
KSTL 041725Z 0418/0524 35015G24KT P6SM SCT060
     FM050100 33006KT P6SM SKC
     FM051500 34012KT P6SM FEW050=

USA.gov is the U.S. government's official web portal to all federal, state and local government web resources and services.